TimeEDT,TemperatureF,Dew PointF,Humidity,Sea Level PressureIn,VisibilityMPH,Wind Direction,Wind SpeedMPH,Gust SpeedMPH,PrecipitationIn,Events,Conditions,WindDirDegrees,DateUTC
12:15 AM,63.5,61.2,92,30.08,10.0,Calm,Calm,-,N/A,,Overcast,0,2013-10-13 04:15:00
12:35 AM,63.5,61.7,94,30.09,10.0,Calm,Calm,-,N/A,,Overcast,0,2013-10-13 04:35:00
12:55 AM,63.9,61.9,93,30.09,10.0,Calm,Calm,-,N/A,,Overcast,0,2013-10-13 04:55:00
1:15 AM,64.4,62.1,92,30.09,10.0,Calm,Calm,-,N/A,,Overcast,0,2013-10-13 05:15:00
1:35 AM,64.4,62.4,93,30.10,10.0,Calm,Calm,-,N/A,,Overcast,0,2013-10-13 05:35:00
1:55 AM,64.4,62.1,92,30.10,10.0,Calm,Calm,-,N/A,,Overcast,0,2013-10-13 05:55:00
2:15 AM,64.8,62.6,93,30.10,10.0,Calm,Calm,-,N/A,,Overcast,0,2013-10-13 06:15:00
2:35 AM,64.9,62.6,92,30.10,10.0,Calm,Calm,-,N/A,,Overcast,0,2013-10-13 06:35:00
2:55 AM,65.3,62.6,91,30.10,10.0,Calm,Calm,-,N/A,,Overcast,0,2013-10-13 06:55:00
3:15 AM,65.3,62.1,89,30.10,10.0,North,3.5,-,N/A,,Overcast,360,2013-10-13 07:15:00
3:35 AM,64.9,62.2,91,30.11,10.0,Calm,Calm,-,N/A,,Overcast,0,2013-10-13 07:35:00
3:55 AM,64.9,62.1,90,30.10,10.0,Calm,Calm,-,N/A,,Overcast,0,2013-10-13 07:55:00
4:15 AM,64.8,61.7,90,30.11,10.0,North,3.5,-,N/A,,Overcast,360,2013-10-13 08:15:00
4:35 AM,64.6,61.7,90,30.11,10.0,North,3.5,-,N/A,,Overcast,350,2013-10-13 08:35:00
4:55 AM,64.4,61.9,92,30.11,10.0,North,3.5,-,N/A,,Overcast,350,2013-10-13 08:55:00
5:15 AM,64.4,61.9,92,30.11,10.0,North,3.5,-,N/A,,Overcast,360,2013-10-13 09:15:00
5:35 AM,64.6,61.9,91,30.11,10.0,Calm,Calm,-,N/A,,Overcast,0,2013-10-13 09:35:00
5:55 AM,64.4,61.9,92,30.11,10.0,North,3.5,-,N/A,,Overcast,360,2013-10-13 09:55:00
6:15 AM,64.2,61.9,92,30.12,10.0,Calm,Calm,-,N/A,,Overcast,0,2013-10-13 10:15:00
6:35 AM,64.4,61.7,91,30.12,10.0,NNW,4.6,-,N/A,,Overcast,340,2013-10-13 10:35:00
6:55 AM,64.4,61.3,90,30.13,10.0,NNW,4.6,-,N/A,,Overcast,330,2013-10-13 10:55:00
7:15 AM,64.4,61.3,90,30.13,10.0,NNW,5.8,-,N/A,,Overcast,340,2013-10-13 11:15:00
7:35 AM,64.4,61.0,89,30.14,10.0,NNW,4.6,-,N/A,,Overcast,340,2013-10-13 11:35:00
7:55 AM,64.4,61.0,89,30.14,10.0,NNW,5.8,-,N/A,,Overcast,340,2013-10-13 11:55:00
8:15 AM,64.6,61.0,88,30.15,10.0,North,4.6,-,N/A,,Overcast,350,2013-10-13 12:15:00
8:35 AM,64.8,61.0,88,30.15,10.0,North,4.6,-,N/A,,Overcast,360,2013-10-13 12:35:00
8:55 AM,65.3,61.0,86,30.16,10.0,North,5.8,-,N/A,,Overcast,360,2013-10-13 12:55:00
9:15 AM,64.9,61.0,87,30.16,10.0,North,6.9,-,N/A,,Overcast,360,2013-10-13 13:15:00
9:35 AM,65.5,60.8,85,30.17,10.0,North,5.8,-,N/A,,Overcast,360,2013-10-13 13:35:00
9:55 AM,66.2,60.4,82,30.17,10.0,NNE,10.4,-,N/A,,Overcast,20,2013-10-13 13:55:00
10:15 AM,66.2,60.3,81,30.18,10.0,NNE,5.8,-,N/A,,Overcast,20,2013-10-13 14:15:00
10:35 AM,66.9,61.0,81,30.18,10.0,North,5.8,-,N/A,,Overcast,360,2013-10-13 14:35:00
10:55 AM,67.5,60.8,79,30.19,10.0,NNE,8.1,-,N/A,,Overcast,20,2013-10-13 14:55:00
11:15 AM,67.5,60.6,79,30.19,10.0,North,8.1,-,N/A,,Overcast,360,2013-10-13 15:15:00
11:55 AM,65.8,61.3,85,30.19,10.0,NNE,4.6,-,N/A,,Overcast,20,2013-10-13 15:55:00
12:15 PM,67.1,61.2,81,30.19,10.0,North,5.8,-,N/A,,Overcast,360,2013-10-13 16:15:00
12:35 PM,68.2,61.3,79,30.18,10.0,North,5.8,-,N/A,,Overcast,350,2013-10-13 16:35:00
12:55 PM,69.8,61.7,75,30.18,10.0,NNW,8.1,-,N/A,,Overcast,340,2013-10-13 16:55:00
1:15 PM,69.6,61.2,74,30.17,10.0,NNW,6.9,-,N/A,,Overcast,330,2013-10-13 17:15:00
1:35 PM,71.1,61.5,72,30.16,10.0,North,5.8,-,N/A,,Overcast,360,2013-10-13 17:35:00
1:55 PM,71.4,61.3,70,30.16,10.0,North,8.1,-,N/A,,Overcast,350,2013-10-13 17:55:00
2:15 PM,71.1,61.0,70,30.15,10.0,North,9.2,-,N/A,,Overcast,360,2013-10-13 18:15:00
2:35 PM,70.7,61.2,72,30.15,10.0,NNE,8.1,-,N/A,,Overcast,20,2013-10-13 18:35:00
2:55 PM,71.1,61.3,71,30.15,10.0,NNE,9.2,-,N/A,,Overcast,30,2013-10-13 18:55:00
3:15 PM,70.9,61.0,71,30.14,10.0,North,8.1,-,N/A,,Overcast,10,2013-10-13 19:15:00
3:35 PM,71.8,60.6,68,30.14,10.0,North,9.2,-,N/A,,Overcast,10,2013-10-13 19:35:00
3:55 PM,72.9,61.0,66,30.14,10.0,North,5.8,-,N/A,,Overcast,10,2013-10-13 19:55:00
4:15 PM,71.6,60.6,68,30.14,10.0,North,9.2,-,N/A,,Overcast,10,2013-10-13 20:15:00
4:35 PM,72.0,60.4,67,30.14,10.0,NNE,5.8,-,N/A,,Overcast,20,2013-10-13 20:35:00
4:55 PM,71.6,61.2,70,30.14,10.0,North,5.8,-,N/A,,Overcast,350,2013-10-13 20:55:00
5:15 PM,71.4,61.7,71,30.15,10.0,North,4.6,-,N/A,,Overcast,360,2013-10-13 21:15:00
5:35 PM,71.2,61.7,72,30.15,10.0,NW,5.8,-,N/A,,Overcast,320,2013-10-13 21:35:00
5:55 PM,71.1,62.4,74,30.15,10.0,North,5.8,-,N/A,,Overcast,350,2013-10-13 21:55:00
6:15 PM,70.2,62.6,77,30.15,10.0,North,8.1,-,N/A,,Overcast,10,2013-10-13 22:15:00
6:35 PM,69.1,62.6,80,30.16,10.0,North,10.4,-,N/A,,Overcast,10,2013-10-13 22:35:00
6:55 PM,68.5,62.1,80,30.16,10.0,NNE,6.9,-,N/A,,Overcast,20,2013-10-13 22:55:00
7:15 PM,68.0,61.9,81,30.17,10.0,NNE,6.9,-,N/A,,Overcast,20,2013-10-13 23:15:00
7:35 PM,67.6,62.1,82,30.18,10.0,North,6.9,-,N/A,,Overcast,10,2013-10-13 23:35:00
7:55 PM,67.3,62.2,84,30.18,10.0,North,4.6,-,N/A,,Overcast,10,2013-10-13 23:55:00
8:15 PM,67.1,62.2,84,30.18,10.0,North,4.6,-,N/A,,Overcast,360,2013-10-14 00:15:00
8:35 PM,67.1,62.1,84,30.18,10.0,North,4.6,-,N/A,,Overcast,10,2013-10-14 00:35:00
8:55 PM,67.1,62.1,84,30.18,10.0,North,5.8,-,N/A,,Overcast,10,2013-10-14 00:55:00
9:15 PM,67.1,61.7,83,30.18,10.0,NNE,9.2,-,N/A,,Overcast,20,2013-10-14 01:15:00
9:35 PM,66.7,61.3,83,30.18,10.0,North,11.5,16.1,N/A,,Overcast,10,2013-10-14 01:35:00
9:55 PM,66.6,60.8,82,30.19,10.0,NE,9.2,-,N/A,,Overcast,40,2013-10-14 01:55:00
10:15 PM,66.2,61.2,84,30.19,10.0,North,6.9,-,N/A,,Overcast,350,2013-10-14 02:15:00
10:35 PM,66.0,61.2,84,30.20,10.0,North,4.6,-,N/A,,Overcast,360,2013-10-14 02:35:00
10:55 PM,66.2,61.0,83,30.20,10.0,North,6.9,-,N/A,,Overcast,360,2013-10-14 02:55:00
11:15 PM,66.2,61.2,84,30.20,10.0,North,4.6,-,N/A,,Overcast,360,2013-10-14 03:15:00
11:35 PM,66.2,61.2,84,30.20,10.0,North,4.6,-,N/A,,Overcast,350,2013-10-14 03:35:00
11:55 PM,65.8,61.2,85,30.20,10.0,North,5.8,-,N/A,,Overcast,360,2013-10-14 03:55:00